Time;durP1;ratioP1;P1;durP2;ratioP2;P2;SDS_P1;SDS_P2;PMS_P1;PMS_P2;Temp;Humidity;BMP_temperature;BMP_pressure;BME280_temperature;BME280_humidity;BME280_pressure;Samples;Min_cycle;Max_cycle;Signal;HPM_P1;HPM_P2
2022/06/05 00:00:35;;;;;;;13.82;8.88;;;27.10;1.00;;;;;;5012805;28;20117;-47
2022/06/05 00:03:15;;;;;;;17.50;10.23;;;27.10;1.00;;;;;;5013565;28;20026;-46
2022/06/05 00:05:52;;;;;;;13.48;9.60;;;27.10;1.00;;;;;;5012376;28;20037;-47
2022/06/05 00:08:26;;;;;;;12.88;9.23;;;27.10;1.00;;;;;;5004777;28;20539;-51
2022/06/05 00:10:57;;;;;;;14.60;9.45;;;27.10;1.00;;;;;;5011662;28;20038;-48
2022/06/05 00:13:48;;;;;;;14.85;9.40;;;27.10;1.00;;;;;;5013421;28;20026;-51
2022/06/05 00:16:16;;;;;;;14.85;9.70;;;27.10;1.00;;;;;;5009601;28;20121;-52
2022/06/05 00:18:42;;;;;;;11.85;8.88;;;27.00;1.00;;;;;;5011993;28;20471;-46
2022/06/05 00:21:09;;;;;;;13.68;10.00;;;27.00;1.00;;;;;;5007565;28;20060;-45
2022/06/05 00:23:36;;;;;;;15.05;10.65;;;27.00;1.00;;;;;;5013227;28;20037;-48
2022/06/05 00:26:12;;;;;;;14.85;9.88;;;27.00;1.00;;;;;;5011340;28;20075;-46
2022/06/05 00:28:39;;;;;;;13.32;10.13;;;27.00;1.00;;;;;;5013531;28;20022;-50
2022/06/05 00:31:18;;;;;;;13.10;9.32;;;27.00;1.00;;;;;;5011239;28;20042;-45
2022/06/05 00:33:43;;;;;;;12.88;9.55;;;26.90;1.00;;;;;;5012653;28;20097;-46
2022/06/05 00:36:24;;;;;;;16.52;9.57;;;26.80;1.00;;;;;;5012953;28;20108;-45
2022/06/05 00:38:59;;;;;;;12.93;9.23;;;26.80;1.00;;;;;;4998746;28;20038;-48
2022/06/05 00:41:51;;;;;;;12.07;9.23;;;26.70;1.00;;;;;;5006587;28;20026;-45
2022/06/05 00:44:23;;;;;;;11.55;9.70;;;26.70;1.00;;;;;;5007879;28;20476;-45
2022/06/05 00:46:50;;;;;;;13.30;9.73;;;26.70;1.00;;;;;;5011614;28;20109;-45
2022/06/05 00:49:18;;;;;;;13.38;9.15;;;26.70;1.00;;;;;;5012067;28;20017;-45
2022/06/05 00:51:44;;;;;;;11.63;8.93;;;26.70;1.00;;;;;;5013032;28;20034;-46
2022/06/05 00:54:10;;;;;;;11.98;9.25;;;26.60;1.00;;;;;;5012061;28;20033;-49
2022/06/05 00:56:38;;;;;;;16.30;9.05;;;26.70;1.00;;;;;;5012841;28;20036;-45
2022/06/05 00:59:04;;;;;;;12.82;9.15;;;26.60;1.00;;;;;;5011615;28;20017;-45
2022/06/05 01:01:31;;;;;;;13.45;8.80;;;26.60;1.00;;;;;;5013051;28;20037;-45
2022/06/05 01:04:01;;;;;;;13.55;9.48;;;26.60;1.00;;;;;;5012117;28;20056;-46
2022/06/05 01:06:28;;;;;;;12.05;9.23;;;26.50;1.00;;;;;;5002928;28;20026;-48
2022/06/05 01:08:54;;;;;;;18.05;9.38;;;26.60;1.00;;;;;;5012523;28;20022;-45
2022/06/05 01:11:28;;;;;;;15.93;9.35;;;26.50;1.00;;;;;;5011522;28;20049;-46
2022/06/05 01:14:17;;;;;;;13.38;9.77;;;26.50;1.00;;;;;;5012604;28;20042;-49
2022/06/05 01:16:47;;;;;;;16.90;9.45;;;26.50;1.00;;;;;;5010992;28;20038;-45
2022/06/05 01:19:31;;;;;;;11.68;9.32;;;26.50;1.00;;;;;;5011627;28;20030;-46
2022/06/05 01:21:56;;;;;;;;;;;26.50;1.00;;;;;;5012354;28;20107;-47
2022/06/05 01:24:34;;;;;;;13.52;9.27;;;26.40;1.00;;;;;;5009211;28;20326;-46
2022/06/05 01:27:04;;;;;;;12.07;9.93;;;26.40;1.00;;;;;;5012002;28;20430;-47
2022/06/05 01:29:42;;;;;;;14.77;10.07;;;26.40;1.00;;;;;;5011324;28;20022;-46
2022/06/05 01:32:25;;;;;;;13.43;10.10;;;26.40;1.00;;;;;;5012498;28;20439;-48
2022/06/05 01:34:59;;;;;;;14.30;9.98;;;26.30;1.00;;;;;;5013765;28;20474;-47
2022/06/05 01:37:33;;;;;;;15.85;10.70;;;26.30;1.00;;;;;;5015623;28;20038;-46
2022/06/05 01:40:18;;;;;;;12.13;9.32;;;26.30;1.00;;;;;;5007220;28;20025;-46
2022/06/05 01:42:49;;;;;;;13.75;9.13;;;26.30;1.00;;;;;;5002968;28;20357;-49
2022/06/05 01:45:23;;;;;;;13.68;9.23;;;26.30;1.00;;;;;;5013684;28;20113;-47
2022/06/05 01:47:54;;;;;;;13.25;9.60;;;26.30;1.00;;;;;;5000811;28;20118;-46
2022/06/05 01:50:44;;;;;;;10.18;8.95;;;26.30;1.00;;;;;;5014427;28;20161;-45
2022/06/05 01:53:24;;;;;;;13.90;8.57;;;26.20;1.00;;;;;;5002122;28;20084;-46
2022/06/05 01:55:52;;;;;;;13.50;9.55;;;26.20;1.00;;;;;;5014761;28;20068;-45
2022/06/05 01:58:20;;;;;;;11.85;9.32;;;26.20;1.00;;;;;;5015999;28;20026;-46
2022/06/05 02:00:50;;;;;;;12.25;8.63;;;26.20;1.00;;;;;;5013439;28;20484;-48
2022/06/05 02:03:28;;;;;;;13.10;9.98;;;26.20;1.00;;;;;;5013822;28;20022;-47
2022/06/05 02:06:02;;;;;;;15.20;10.13;;;26.20;1.00;;;;;;5001283;28;20030;-46
2022/06/05 02:08:49;;;;;;;13.45;9.50;;;26.10;1.00;;;;;;5015883;28;20488;-47
2022/06/05 02:11:25;;;;;;;11.55;9.25;;;26.10;1.00;;;;;;5014641;28;20045;-47
2022/06/05 02:13:58;;;;;;;13.30;9.50;;;26.10;1.00;;;;;;5015607;28;20032;-47
2022/06/05 02:16:26;;;;;;;11.15;8.35;;;26.10;1.00;;;;;;5014615;28;20034;-47
2022/06/05 02:18:52;;;;;;;11.30;8.82;;;26.10;1.00;;;;;;5015455;28;20075;-45
2022/06/05 02:21:19;;;;;;;13.40;9.57;;;26.10;1.00;;;;;;5012745;28;20045;-46
2022/06/05 02:23:45;;;;;;;9.13;8.25;;;26.00;1.00;;;;;;5015703;28;20116;-47
2022/06/05 02:26:10;;;;;;;13.32;9.48;;;26.00;1.00;;;;;;5014589;28;20460;-48
2022/06/05 02:28:37;;;;;;;11.68;9.07;;;26.00;1.00;;;;;;5015358;28;20049;-46
2022/06/05 02:31:45;;;;;;;13.13;8.45;;;26.00;1.00;;;;;;5014279;28;20033;-48
2022/06/05 02:34:18;;;;;;;13.55;8.55;;;25.90;1.00;;;;;;4982394;28;20041;-46
2022/06/05 02:36:56;;;;;;;14.55;9.13;;;26.00;1.00;;;;;;5015044;28;20042;-45
2022/06/05 02:39:43;;;;;;;14.13;8.65;;;26.00;1.00;;;;;;5014242;28;20476;-47
2022/06/05 02:42:32;;;;;;;11.13;8.27;;;25.90;1.00;;;;;;5014666;28;20029;-46
2022/06/05 02:45:16;;;;;;;13.27;8.60;;;25.90;1.00;;;;;;5014137;28;20022;-45
2022/06/05 02:48:03;;;;;;;12.38;9.10;;;25.90;1.00;;;;;;5009256;28;20041;-48
2022/06/05 02:50:34;;;;;;;11.27;8.02;;;25.90;1.00;;;;;;5013942;28;20038;-49
2022/06/05 02:53:03;;;;;;;11.32;8.38;;;25.90;1.00;;;;;;5014919;28;20484;-48
2022/06/05 02:55:29;;;;;;;11.23;9.05;;;25.90;1.00;;;;;;5012097;28;20494;-49
2022/06/05 02:57:56;;;;;;;13.00;8.77;;;25.90;1.00;;;;;;5000802;28;20073;-47
2022/06/05 03:00:25;;;;;;;10.02;7.70;;;25.80;1.00;;;;;;5005797;28;20029;-53
2022/06/05 03:05:36;;;;;;;16.67;9.15;;;25.70;1.00;;;;;;5013494;28;20080;-47
2022/06/05 03:08:02;;;;;;;16.13;8.02;;;25.70;1.00;;;;;;5010176;28;20054;-50
2022/06/05 03:10:29;;;;;;;9.73;7.75;;;25.70;1.00;;;;;;5003999;28;20088;-50
2022/06/05 03:12:54;;;;;;;14.00;8.52;;;25.70;1.00;;;;;;5012894;28;20464;-47
2022/06/05 03:15:20;;;;;;;10.80;7.70;;;25.70;1.00;;;;;;5012088;28;20099;-49
2022/06/05 03:17:45;;;;;;;11.68;7.95;;;25.70;1.00;;;;;;5013321;28;20029;-48
2022/06/05 03:20:14;;;;;;;10.40;7.53;;;25.60;1.00;;;;;;4999693;28;20018;-50
2022/06/05 03:22:40;;;;;;;11.38;7.63;;;25.70;1.00;;;;;;5014273;28;20037;-48
2022/06/05 03:25:07;;;;;;;9.30;7.63;;;25.60;1.00;;;;;;5013255;28;20060;-47
2022/06/05 03:27:33;;;;;;;16.05;8.38;;;25.60;1.00;;;;;;5014196;28;20038;-46
2022/06/05 03:30:00;;;;;;;12.30;7.68;;;25.60;1.00;;;;;;5013479;28;20091;-46
2022/06/05 03:32:27;;;;;;;10.15;7.75;;;25.60;1.00;;;;;;5014374;28;20491;-47
2022/06/05 03:34:53;;;;;;;12.65;7.95;;;25.50;1.00;;;;;;5011653;28;20017;-46
2022/06/05 03:37:19;;;;;;;12.15;7.55;;;25.60;1.00;;;;;;5014660;28;20061;-46
2022/06/05 03:39:46;;;;;;;9.18;7.32;;;25.60;1.00;;;;;;5014192;28;20415;-45
2022/06/05 03:42:11;;;;;;;11.23;7.85;;;25.60;1.00;;;;;;5013275;28;20480;-45
2022/06/05 03:44:38;;;;;;;11.38;7.82;;;25.60;1.00;;;;;;5012369;28;20033;-46
2022/06/05 03:47:05;;;;;;;14.70;7.75;;;25.50;1.00;;;;;;5012667;28;20060;-47
2022/06/05 03:49:32;;;;;;;11.95;7.70;;;25.50;1.00;;;;;;5014109;28;20065;-47
2022/06/05 03:51:58;;;;;;;12.57;7.32;;;25.50;1.00;;;;;;5010606;28;20498;-45
2022/06/05 03:54:23;;;;;;;8.50;7.38;;;25.50;1.00;;;;;;5012002;28;20423;-47
2022/06/05 03:56:49;;;;;;;13.73;9.25;;;25.50;1.00;;;;;;5011571;28;20033;-45
2022/06/05 03:59:15;;;;;;;13.32;9.43;;;25.40;1.00;;;;;;5012420;28;20029;-45
2022/06/05 04:01:40;;;;;;;14.15;9.27;;;25.40;1.00;;;;;;5009633;28;20033;-45
2022/06/05 04:04:06;;;;;;;11.32;10.07;;;25.40;1.00;;;;;;5012125;28;20059;-49
2022/06/05 04:06:32;;;;;;;12.23;10.05;;;25.40;1.00;;;;;;5012321;28;20404;-47
2022/06/05 04:09:01;;;;;;;14.93;10.00;;;25.40;1.00;;;;;;5001390;28;20025;-45
2022/06/05 04:11:29;;;;;;;16.52;10.55;;;25.30;1.00;;;;;;5012505;28;20376;-46
2022/06/05 04:13:55;;;;;;;17.95;10.77;;;25.30;1.00;;;;;;5012591;28;20065;-46
2022/06/05 04:16:23;;;;;;;15.98;11.07;;;25.40;1.00;;;;;;5011418;28;20026;-45
2022/06/05 04:18:50;;;;;;;12.77;10.70;;;25.30;1.00;;;;;;5013143;28;20053;-46
2022/06/05 04:21:24;;;;;;;11.48;10.27;;;25.40;1.00;;;;;;5012291;28;20049;-47
2022/06/05 04:23:51;;;;;;;13.63;10.88;;;25.40;1.00;;;;;;5012754;28;20018;-48
2022/06/05 04:26:19;;;;;;;14.68;11.60;;;25.40;1.00;;;;;;5011718;28;20041;-48
2022/06/05 04:28:45;;;;;;;13.55;11.82;;;25.40;1.00;;;;;;5013731;28;20034;-46
2022/06/05 04:31:35;;;;;;;16.75;11.93;;;25.40;1.00;;;;;;5012301;28;20038;-44
2022/06/05 04:34:04;;;;;;;13.05;11.00;;;25.40;1.00;;;;;;5001218;28;20112;-45
2022/06/05 04:36:31;;;;;;;16.25;11.40;;;25.30;1.00;;;;;;5011810;28;20119;-45
2022/06/05 04:38:57;;;;;;;13.85;10.40;;;25.40;1.00;;;;;;5012213;28;20026;-45
2022/06/05 04:41:24;;;;;;;13.38;11.02;;;25.40;1.00;;;;;;5012171;28;20179;-46
2022/06/05 04:43:51;;;;;;;12.50;8.20;;;25.30;1.00;;;;;;5012872;28;20101;-45
2022/06/05 04:46:19;;;;;;;12.63;8.15;;;25.30;1.00;;;;;;5011938;28;20040;-45
2022/06/05 04:48:45;;;;;;;12.25;7.75;;;25.30;1.00;;;;;;5011265;28;20038;-45
2022/06/05 04:51:15;;;;;;;12.52;8.15;;;25.30;1.00;;;;;;5012026;28;20127;-47
2022/06/05 04:53:42;;;;;;;12.15;7.55;;;25.30;1.00;;;;;;5012895;28;20030;-45
2022/06/05 04:56:11;;;;;;;14.25;7.43;;;25.30;1.00;;;;;;5004711;28;20376;-46
2022/06/05 04:58:37;;;;;;;10.73;6.50;;;25.30;1.00;;;;;;5006433;28;20112;-48
2022/06/05 05:01:17;;;;;;;13.07;7.38;;;25.40;1.00;;;;;;5010366;28;20033;-49
2022/06/05 05:03:44;;;;;;;10.48;6.70;;;25.40;1.00;;;;;;5011811;28;20541;-46
2022/06/05 05:06:10;;;;;;;13.30;7.05;;;25.30;1.00;;;;;;5014183;28;20026;-49
2022/06/05 05:08:36;;;;;;;9.82;5.70;;;25.40;1.00;;;;;;5016876;28;20053;-45
2022/06/05 05:11:01;;;;;;;12.85;6.32;;;25.40;1.00;;;;;;5015849;28;20030;-48
2022/06/05 05:13:27;;;;;;;13.68;6.78;;;25.40;1.00;;;;;;5016639;28;20423;-45
2022/06/05 05:15:55;;;;;;;11.80;6.53;;;25.50;1.00;;;;;;5014856;28;20029;-46
2022/06/05 05:18:21;;;;;;;13.77;6.45;;;25.40;1.00;;;;;;5005892;28;20101;-45
2022/06/05 05:20:47;;;;;;;15.52;7.60;;;25.40;1.00;;;;;;5010278;28;20464;-45
2022/06/05 05:23:13;;;;;;;10.93;7.32;;;25.40;1.00;;;;;;5013330;28;20104;-45
2022/06/05 05:25:39;;;;;;;11.93;9.25;;;25.40;1.00;;;;;;5015967;28;20466;-45
2022/06/05 05:28:08;;;;;;;13.93;9.88;;;25.40;1.00;;;;;;5014151;28;20267;-48
2022/06/05 05:30:34;;;;;;;14.57;9.10;;;25.40;1.00;;;;;;5014234;28;20046;-47
2022/06/05 05:33:00;;;;;;;15.38;9.95;;;25.40;1.00;;;;;;5016553;28;20025;-50
2022/06/05 05:35:27;;;;;;;16.30;10.25;;;25.40;1.00;;;;;;5015006;28;20030;-46
2022/06/05 05:37:52;;;;;;;15.13;9.90;;;25.40;1.00;;;;;;5016481;28;20033;-45
2022/06/05 05:43:02;;;;;;;22.55;12.52;;;25.30;1.00;;;;;;5014901;28;20105;-51
2022/06/05 05:45:28;;;;;;;17.88;11.32;;;25.30;1.00;;;;;;5012820;28;20029;-50
2022/06/05 05:47:54;;;;;;;24.55;16.10;;;25.40;1.00;;;;;;5016026;28;20029;-46
2022/06/05 05:53:42;;;;;;;23.60;19.60;;;25.30;1.00;;;;;;5004744;28;20045;-45
2022/06/05 05:56:12;;;;;;;27.88;21.52;;;25.40;1.00;;;;;;5015180;28;20028;-47
2022/06/05 05:58:39;;;;;;;30.70;23.38;;;25.40;1.00;;;;;;5013536;28;20476;-50
2022/06/05 06:01:07;;;;;;;29.58;23.13;;;25.40;1.00;;;;;;5016053;28;20080;-47
2022/06/05 06:03:33;;;;;;;27.20;23.00;;;25.40;1.00;;;;;;5014856;28;20033;-45
2022/06/05 06:06:00;;;;;;;33.45;26.77;;;25.40;1.00;;;;;;5015679;28;20527;-45
2022/06/05 06:08:35;;;;;;;32.80;27.48;;;25.40;1.00;;;;;;5015063;28;20030;-48
2022/06/05 06:11:01;;;;;;;36.92;28.70;;;25.50;1.00;;;;;;5015367;28;20125;-48
2022/06/05 06:13:27;;;;;;;41.92;30.92;;;25.50;1.00;;;;;;5014667;28;20061;-50
2022/06/05 06:15:52;;;;;;;46.25;32.90;;;25.50;1.00;;;;;;5015374;28;20022;-47
2022/06/05 06:18:18;;;;;;;39.97;31.92;;;25.40;1.00;;;;;;5012778;28;20383;-47
2022/06/05 06:20:45;;;;;;;42.03;31.23;;;25.50;1.00;;;;;;5005962;28;20447;-51
2022/06/05 06:23:11;;;;;;;40.40;31.27;;;25.40;1.00;;;;;;5014493;28;20029;-47
2022/06/05 06:25:37;;;;;;;37.83;31.65;;;25.50;1.00;;;;;;5013933;28;20030;-50
2022/06/05 06:28:04;;;;;;;34.88;31.10;;;25.50;1.00;;;;;;5013341;28;20030;-48
2022/06/05 06:30:32;;;;;;;34.45;30.70;;;25.40;1.00;;;;;;5015494;28;20026;-45
2022/06/05 06:32:58;;;;;;;35.45;29.98;;;25.40;1.00;;;;;;5014533;28;20388;-47
2022/06/05 06:35:29;;;;;;;37.72;29.65;;;25.50;1.00;;;;;;5015081;28;20026;-46
2022/06/05 06:37:55;;;;;;;35.17;27.25;;;25.50;1.00;;;;;;5013132;28;20040;-50
2022/06/05 06:40:22;;;;;;;34.05;27.40;;;25.60;1.00;;;;;;5013640;28;20018;-52
2022/06/05 06:42:48;;;;;;;32.47;28.25;;;25.70;1.00;;;;;;5014330;28;20101;-50
2022/06/05 06:45:13;;;;;;;36.58;28.15;;;25.70;1.00;;;;;;5014884;28;20029;-48
2022/06/05 06:47:39;;;;;;;36.05;26.23;;;25.70;1.00;;;;;;5014254;28;20022;-47
2022/06/05 06:50:05;;;;;;;30.80;25.33;;;25.70;1.00;;;;;;5015141;28;20060;-46
2022/06/05 06:52:31;;;;;;;32.92;25.98;;;25.70;1.00;;;;;;5012918;28;20040;-44
2022/06/05 06:54:57;;;;;;;36.15;27.85;;;25.80;1.00;;;;;;5014675;28;20014;-49
2022/06/05 06:57:23;;;;;;;38.75;27.83;;;25.80;1.00;;;;;;4999501;28;20104;-45
2022/06/05 06:59:48;;;;;;;30.65;25.80;;;25.80;1.00;;;;;;5012766;28;20029;-49
2022/06/05 07:02:14;;;;;;;35.38;26.48;;;25.90;1.00;;;;;;5014685;28;20464;-49
2022/06/05 07:04:40;;;;;;;36.47;27.50;;;26.00;1.00;;;;;;5012580;28;20033;-48
2022/06/05 07:07:05;;;;;;;38.55;27.83;;;26.00;1.00;;;;;;5013417;28;20022;-48
2022/06/05 07:09:32;;;;;;;30.00;24.52;;;26.00;1.00;;;;;;5005185;28;20033;-46
2022/06/05 07:11:58;;;;;;;31.90;26.98;;;26.10;1.00;;;;;;5008929;28;20034;-47
2022/06/05 07:14:25;;;;;;;28.15;25.15;;;26.10;1.00;;;;;;5013478;28;20034;-47
2022/06/05 07:16:51;;;;;;;34.85;25.58;;;26.20;1.00;;;;;;5012105;28;20038;-45
2022/06/05 07:19:17;;;;;;;31.45;27.10;;;26.20;1.00;;;;;;5004120;28;20078;-45
2022/06/05 07:21:45;;;;;;;34.78;26.75;;;26.30;1.00;;;;;;5012034;28;20515;-45
2022/06/05 07:24:11;;;;;;;32.78;24.98;;;26.30;1.00;;;;;;5012205;28;20030;-45
2022/06/05 07:26:37;;;;;;;29.95;26.20;;;26.30;1.00;;;;;;5014391;28;20117;-45
2022/06/05 07:29:04;;;;;;;30.73;26.35;;;26.30;1.00;;;;;;5012181;28;20435;-46
2022/06/05 07:31:31;;;;;;;32.00;25.90;;;26.40;1.00;;;;;;5014381;28;20132;-49
2022/06/05 07:33:58;;;;;;;32.33;27.50;;;26.50;1.00;;;;;;5013215;28;20476;-46
2022/06/05 07:36:26;;;;;;;32.65;26.67;;;26.50;1.00;;;;;;5013972;28;20034;-47
2022/06/05 07:38:53;;;;;;;29.17;25.30;;;26.60;1.00;;;;;;5012062;28;20492;-48
2022/06/05 07:41:27;;;;;;;34.17;27.25;;;26.60;1.00;;;;;;5013865;28;20041;-47
2022/06/05 07:43:54;;;;;;;29.95;26.67;;;26.70;1.00;;;;;;5012931;28;20034;-46
2022/06/05 07:46:20;;;;;;;33.25;26.80;;;26.80;1.00;;;;;;5014073;28;20033;-49
2022/06/05 07:48:47;;;;;;;30.33;27.13;;;26.90;1.00;;;;;;5013115;28;20014;-48
2022/06/05 07:56:46;;;;;;;33.75;24.48;;;27.20;1.00;;;;;;5013969;28;20084;-51
2022/06/05 07:59:11;;;;;;;30.80;26.38;;;27.30;1.00;;;;;;5012615;28;20026;-46
2022/06/05 08:01:37;;;;;;;30.67;26.13;;;27.40;1.00;;;;;;5012336;28;20459;-46
2022/06/05 08:04:04;;;;;;;29.48;25.48;;;27.50;1.00;;;;;;5012588;28;20144;-46
2022/06/05 08:06:29;;;;;;;28.80;25.70;;;27.60;1.00;;;;;;5013544;28;20045;-46
2022/06/05 08:08:55;;;;;;;33.70;26.17;;;27.60;1.00;;;;;;5012753;28;20026;-47
2022/06/05 08:11:21;;;;;;;28.35;23.27;;;27.70;1.00;;;;;;5013685;28;20038;-51
2022/06/05 08:13:46;;;;;;;29.90;24.42;;;27.70;1.00;;;;;;5012453;28;20468;-47
2022/06/05 08:16:13;;;;;;;30.35;25.73;;;27.80;1.00;;;;;;5012112;28;20041;-46
2022/06/05 08:18:39;;;;;;;29.90;24.30;;;27.80;1.00;;;;;;5010515;28;20033;-46
2022/06/05 08:21:05;;;;;;;33.65;25.17;;;27.90;1.00;;;;;;5013541;28;20089;-46
2022/06/05 08:23:30;;;;;;;30.95;23.65;;;27.90;1.00;;;;;;5007694;28;20050;-47
2022/06/05 08:25:57;;;;;;;28.88;21.10;;;28.00;1.00;;;;;;5005074;28;20022;-47
2022/06/05 08:28:25;;;;;;;27.00;23.77;;;28.00;1.00;;;;;;5012674;28;20030;-46
2022/06/05 08:30:54;;;;;;;31.27;22.15;;;28.10;1.00;;;;;;5014069;28;20045;-45
2022/06/05 08:33:20;;;;;;;25.60;22.90;;;28.10;1.00;;;;;;5011044;28;20033;-45
2022/06/05 08:35:48;;;;;;;24.83;21.50;;;28.20;1.00;;;;;;5013513;28;20030;-44
2022/06/05 08:41:32;;;;;;;24.30;21.52;;;28.40;1.00;;;;;;5012810;28;20121;-49
2022/06/05 08:44:05;;;;;;;23.02;19.23;;;28.40;1.00;;;;;;5011820;28;20026;-48
2022/06/05 08:46:45;;;;;;;21.83;19.33;;;28.50;1.00;;;;;;5013308;28;20415;-45
2022/06/05 08:49:40;;;;;;;28.52;22.85;;;28.50;1.00;;;;;;5002493;28;20390;-46
2022/06/05 08:52:27;;;;;;;29.38;22.42;;;28.50;1.00;;;;;;4998314;28;20504;-46
2022/06/05 08:55:06;;;;;;;25.83;22.42;;;28.50;1.00;;;;;;5011748;28;20100;-46
2022/06/05 08:57:44;;;;;;;26.40;20.15;;;28.40;1.00;;;;;;5011905;28;20026;-46
2022/06/05 09:00:20;;;;;;;26.23;23.45;;;28.50;1.00;;;;;;5011983;28;20029;-46
2022/06/05 09:02:50;;;;;;;27.40;20.92;;;28.60;1.00;;;;;;5012895;28;20026;-47
2022/06/05 09:05:33;;;;;;;28.67;22.27;;;28.60;1.00;;;;;;5011992;28;20073;-46
2022/06/05 09:08:08;;;;;;;28.00;21.20;;;28.70;1.00;;;;;;5025422;28;20040;-47
2022/06/05 09:10:57;;;;;;;29.33;21.88;;;28.90;1.00;;;;;;5012389;28;20064;-47
2022/06/05 09:13:44;;;;;;;32.08;23.63;;;28.90;1.00;;;;;;5010920;28;20488;-46
2022/06/05 09:16:25;;;;;;;25.58;22.98;;;28.80;1.00;;;;;;5012817;28;20411;-45
2022/06/05 09:18:51;;;;;;;26.40;20.80;;;28.80;1.00;;;;;;5005377;28;20057;-45
2022/06/05 09:21:42;;;;;;;25.60;22.88;;;28.80;1.00;;;;;;5012357;28;20053;-44
2022/06/05 09:37:48;;;;;;;31.38;27.92;;;29.30;1.00;;;;;;4995644;28;20057;-48
2022/06/05 09:40:18;;;;;;;29.20;23.83;;;29.30;1.00;;;;;;5009825;28;20022;-44
2022/06/05 09:43:10;;;;;;;25.73;22.95;;;29.50;1.00;;;;;;5010359;28;20499;-44
2022/06/05 09:46:17;;;;;;;26.60;23.15;;;29.60;1.00;;;;;;5012142;28;20022;-46
2022/06/05 09:49:25;;;;;;;28.20;25.30;;;29.80;1.00;;;;;;4991062;28;20083;-45
2022/06/05 09:51:50;;;;;;;21.40;19.10;;;29.90;1.00;;;;;;5011490;28;20115;-47
2022/06/05 09:54:19;;;;;;;22.10;19.67;;;30.20;1.00;;;;;;5016006;28;20443;-46
2022/06/05 10:00:00;;;;;;;26.98;19.80;;;30.30;1.00;;;;;;5006254;28;20523;-44
2022/06/05 10:02:27;;;;;;;21.90;19.58;;;30.20;1.00;;;;;;5014768;28;20492;-45
2022/06/05 10:04:53;;;;;;;22.42;20.02;;;30.40;1.00;;;;;;5016129;28;20026;-44
2022/06/05 10:07:28;;;;;;;27.10;20.95;;;30.40;1.00;;;;;;5014394;28;20539;-44
2022/06/05 10:09:55;;;;;;;21.65;19.40;;;30.40;1.00;;;;;;5014394;28;20113;-44
2022/06/05 10:12:25;;;;;;;28.52;25.20;;;30.50;1.00;;;;;;5013291;28;20033;-45
2022/06/05 10:15:03;;;;;;;26.10;21.85;;;30.50;1.00;;;;;;5014984;28;20029;-44
2022/06/05 10:17:48;;;;;;;25.38;21.42;;;30.60;1.00;;;;;;5014761;28;20034;-44
2022/06/05 10:20:15;;;;;;;32.78;23.80;;;30.80;1.00;;;;;;5002101;28;20547;-44
2022/06/05 10:22:56;;;;;;;24.30;21.75;;;30.80;1.00;;;;;;5014347;28;20033;-44
2022/06/05 10:25:47;;;;;;;26.00;21.58;;;30.70;1.00;;;;;;5002147;28;20041;-44
2022/06/05 10:28:18;;;;;;;26.27;22.80;;;30.60;1.00;;;;;;5014366;28;20038;-46
2022/06/05 10:31:06;;;;;;;25.35;21.45;;;30.60;1.00;;;;;;5015366;28;20542;-46
2022/06/05 10:33:40;;;;;;;27.45;24.75;;;30.50;1.00;;;;;;5000932;28;20116;-45
2022/06/05 10:36:15;;;;;;;28.55;25.25;;;30.50;1.00;;;;;;5015070;28;20034;-45
2022/06/05 10:38:50;;;;;;;34.70;29.77;;;30.60;1.00;;;;;;5013221;28;20026;-47
2022/06/05 10:41:35;;;;;;;28.58;25.77;;;30.60;1.00;;;;;;5014360;28;20116;-49
2022/06/05 10:44:24;;;;;;;29.25;26.08;;;30.70;1.00;;;;;;5014994;28;20556;-47
2022/06/05 10:46:52;;;;;;;28.98;25.55;;;30.70;1.00;;;;;;5014127;28;20109;-45
2022/06/05 10:49:34;;;;;;;32.20;27.20;;;30.60;1.00;;;;;;5015246;28;20522;-47
2022/06/05 10:52:02;;;;;;;31.75;27.40;;;30.60;1.00;;;;;;5012705;28;20038;-45
2022/06/05 10:54:54;;;;;;;34.55;29.52;;;30.60;1.00;;;;;;4999180;28;20124;-47
2022/06/05 10:57:32;;;;;;;38.15;31.80;;;30.60;1.00;;;;;;5011092;28;20037;-45
2022/06/05 11:00:19;;;;;;;33.15;29.67;;;30.50;1.00;;;;;;5015193;28;20037;-46
2022/06/05 11:02:51;;;;;;;33.47;29.90;;;30.50;1.00;;;;;;5003436;28;20033;-45
2022/06/05 11:05:45;;;;;;;37.95;33.92;;;30.50;1.00;;;;;;5014836;28;20076;-45
2022/06/05 11:08:59;;;;;;;40.33;36.22;;;30.70;1.00;;;;;;5008226;28;20110;-45
2022/06/05 11:14:19;;;;;;;;;;;30.80;1.00;;;;;;4996247;28;20520;-45
2022/06/05 11:16:47;;;;;;;43.78;38.28;;;30.60;1.00;;;;;;5012567;28;19944;-45
2022/06/05 11:19:22;;;;;;;41.30;36.90;;;30.90;1.00;;;;;;5006368;28;20034;-45
2022/06/05 11:21:50;;;;;;;36.70;33.05;;;31.00;1.00;;;;;;5012418;28;20449;-47
2022/06/05 11:24:30;;;;;;;40.78;33.92;;;31.30;1.00;;;;;;5014660;28;20030;-45
2022/06/05 11:27:01;;;;;;;33.10;29.63;;;31.40;1.00;;;;;;5011919;28;20037;-45
2022/06/05 11:29:39;;;;;;;40.72;35.70;;;31.70;1.00;;;;;;5014355;28;20038;-45
2022/06/05 11:32:08;;;;;;;41.30;36.65;;;31.80;1.00;;;;;;5011951;28;20133;-45
2022/06/05 11:34:43;;;;;;;38.70;34.63;;;32.00;1.00;;;;;;5014421;28;20057;-46
2022/06/05 11:37:21;;;;;;;38.15;34.25;;;32.10;1.00;;;;;;5012909;28;20503;-45
2022/06/05 11:39:56;;;;;;;34.78;31.27;;;32.00;1.00;;;;;;5013661;28;20038;-46
2022/06/05 11:42:39;;;;;;;39.25;35.08;;;32.30;1.00;;;;;;4999823;28;20080;-45
2022/06/05 11:45:18;;;;;;;33.20;29.67;;;32.40;1.00;;;;;;5011876;28;20029;-45
2022/06/05 11:47:54;;;;;;;31.40;28.40;;;32.50;1.00;;;;;;5012643;28;20022;-45
2022/06/05 11:50:30;;;;;;;31.77;27.50;;;33.10;1.00;;;;;;5012609;28;20038;-45
2022/06/05 11:53:22;;;;;;;31.10;28.10;;;34.70;1.00;;;;;;5003734;28;20030;-46
2022/06/05 11:56:24;;;;;;;30.02;26.88;;;35.10;1.00;;;;;;5012966;28;20025;-46
2022/06/05 11:58:59;;;;;;;31.88;28.63;;;36.70;1.00;;;;;;5009003;28;20037;-47
2022/06/05 12:01:31;;;;;;;35.20;31.85;;;37.10;1.00;;;;;;5013857;28;20097;-45
2022/06/05 12:04:16;;;;;;;31.25;28.05;;;36.40;1.00;;;;;;5011154;28;20483;-45
2022/06/05 12:06:56;;;;;;;33.70;30.23;;;35.70;1.00;;;;;;5012910;28;20092;-47
2022/06/05 12:09:29;;;;;;;31.13;28.08;;;35.50;1.00;;;;;;5013183;28;20029;-46
2022/06/05 12:12:15;;;;;;;;;;;35.60;1.00;;;;;;5013182;28;20057;-46
2022/06/05 12:14:46;;;;;;;24.67;21.88;;;36.40;1.00;;;;;;5001109;28;19916;-46
2022/06/05 12:17:15;;;;;;;27.35;24.42;;;36.40;1.00;;;;;;5012330;28;20384;-47
2022/06/05 12:20:08;;;;;;;28.02;25.17;;;36.60;1.00;;;;;;5013053;28;20094;-49
2022/06/05 12:22:42;;;;;;;27.80;22.77;;;36.50;1.00;;;;;;5006369;28;20107;-48
2022/06/05 12:25:17;;;;;;;23.67;21.20;;;36.40;1.00;;;;;;5013044;28;20021;-48
2022/06/05 12:27:54;;;;;;;21.80;19.67;;;36.30;1.00;;;;;;5006019;28;20385;-46
2022/06/05 12:30:29;;;;;;;18.90;16.77;;;36.30;1.00;;;;;;5012862;28;20038;-48
2022/06/05 12:33:12;;;;;;;22.63;20.33;;;36.60;1.00;;;;;;5009211;28;20057;-46
2022/06/05 12:35:44;;;;;;;22.25;20.05;;;37.10;1.00;;;;;;5001372;28;20029;-48
2022/06/05 12:38:24;;;;;;;20.73;18.52;;;37.80;1.00;;;;;;5012000;28;20025;-45
2022/06/05 12:41:17;;;;;;;20.83;17.10;;;38.70;1.00;;;;;;5011792;28;20034;-46
2022/06/05 12:44:00;;;;;;;20.17;14.93;;;39.80;1.00;;;;;;4984098;28;20121;-46
2022/06/05 12:46:51;;;;;;;16.05;13.30;;;40.50;1.00;;;;;;5011780;28;20065;-47
2022/06/05 12:49:32;;;;;;;19.45;17.40;;;40.70;1.00;;;;;;5005218;28;20029;-46
2022/06/05 12:52:09;;;;;;;20.25;15.43;;;41.20;1.00;;;;;;5012406;28;20033;-47
2022/06/05 12:55:22;;;;;;;23.05;16.17;;;42.00;1.00;;;;;;5003521;28;20034;-47
2022/06/05 12:58:00;;;;;;;15.27;13.68;;;42.70;1.00;;;;;;4999414;28;20054;-45
2022/06/05 13:00:41;;;;;;;16.85;13.10;;;42.70;1.00;;;;;;5011686;28;20045;-45
2022/06/05 13:03:39;;;;;;;18.33;13.20;;;42.70;1.00;;;;;;5003390;28;20033;-45
2022/06/05 13:06:30;;;;;;;14.32;11.63;;;41.80;1.00;;;;;;4994261;28;20030;-47
2022/06/05 13:09:02;;;;;;;21.42;12.75;;;39.80;1.00;;;;;;5011709;28;20527;-46
2022/06/05 13:11:46;;;;;;;17.03;12.77;;;37.70;1.00;;;;;;5010788;28;20044;-46
2022/06/05 13:14:34;;;;;;;16.00;11.73;;;37.90;1.00;;;;;;5011863;28;20038;-45
2022/06/05 13:17:14;;;;;;;16.40;10.75;;;38.30;1.00;;;;;;5012196;28;20026;-52
2022/06/05 13:19:55;;;;;;;11.77;9.93;;;38.50;1.00;;;;;;5001078;28;20041;-47
2022/06/05 13:22:39;;;;;;;15.30;10.27;;;38.80;1.00;;;;;;5009043;28;20042;-47
2022/06/05 13:25:17;;;;;;;17.15;10.18;;;38.70;1.00;;;;;;5000499;28;20495;-46
2022/06/05 13:27:43;;;;;;;12.60;9.70;;;36.90;1.00;;;;;;5012611;28;20425;-46
2022/06/05 13:30:25;;;;;;;12.75;10.95;;;36.10;1.00;;;;;;5016490;28;20168;-48
2022/06/05 13:33:05;;;;;;;17.05;11.35;;;35.10;1.00;;;;;;5009415;28;20026;-46
2022/06/05 13:35:42;;;;;;;15.25;9.20;;;34.10;1.00;;;;;;5015171;28;20396;-46
2022/06/05 13:38:14;;;;;;;11.82;9.25;;;34.30;1.00;;;;;;5003022;28;20014;-46
2022/06/05 13:40:56;;;;;;;11.23;9.23;;;35.10;1.00;;;;;;5005493;28;20169;-50
2022/06/05 13:43:28;;;;;;;17.45;9.63;;;34.60;1.00;;;;;;5012997;28;20025;-45
2022/06/05 13:46:09;;;;;;;15.35;9.00;;;34.50;1.00;;;;;;5015955;28;20044;-47